Crab Orchard, KY (40419)

5:07 PM EST on February 10, 2016 (GMT -0500)
K. Bracketts Weather Station 39 N | | Change Station
CLOSE
Current Station
Personal Weather Station
Location: Crab Orchard, KY
Elevation: 952 ft
Nearby Weather Stations

Elev 952 ft 37.47 °N, 84.51 °W | Updated 9 seconds ago

Mostly Cloudy
Mostly Cloudy
21.2 °F
Feels Like 16 °F
N
4.0
Wind Variable Wind from WNW
Gusts 8.1 mph

Today
High -- | Low -- °F
--% Chance of Precip.
Yesterday
High -- | Low -- °F
Precip. -- in
Pressure 30.07 in
Visibility 10.0 miles
Clouds Overcast 3400 ft
Windchill 16 °F
Dew Point -0 °F
Humidity 41%
Rainfall 0.00 in
Snow Depth Not available.
7:33 AM 6:11 PM
Waxing Crescent, 7% visible
METAR KI39 102155Z AUTO 26010G16KT 10SM OVC034 M07/M14 A3007 RMK AO2
Pressure 30.07 in
Visibility 10.0 miles
Clouds Overcast 3400 ft
Windchill 16 °F
Dew Point -0 °F
Humidity 41%
Rainfall 0.00 in
Snow Depth Not available.
7:33 AM 6:11 PM
Waxing Crescent, 7% visible
METAR KI39 102155Z AUTO 26010G16KT 10SM OVC034 M07/M14 A3007 RMK AO2

10-Day Weather Forecast

Almanac

Astronomy

Feb. 10, 2016 Rise Set
Actual Time
Civil Twilight
Nautical Twilight
Astronomical Twilight
Moon
Length of Visible Light
Length of Day
Tomorrow will be .
, % of the Moon is Illuminated

Today's Extremes

State Highs State Lows

Community

WunderPhotos

Upload Photos

1,891,959 photos uploaded!

WunderBlog® & News

Nearby

Air Quality

  Air Quality AQ Index Pollutant
Not available.

Snow Depth

Station Depth Elevation

Earthquake Activity

City Distance Mag. Time & Date
Minimum magnitude displayed is 2.5.

Coastal Water Temperatures

Place Temperature

Stations

Nearby Weather Stations

Station Location Temp. Windchill Dew Point Humidity Wind Precip. Elev Updated Type
                   

Watches & Warnings

There are currently no watches in effect.